Time;durP1;ratioP1;P1;durP2;ratioP2;P2;SDS_P1;SDS_P2;PMS_P1;PMS_P2;Temp;Humidity;BMP_temperature;BMP_pressure;BME280_temperature;BME280_humidity;BME280_pressure;Samples;Min_cycle;Max_cycle;Signal;HPM_P1;HPM_P2
2022/08/24 00:01:16;;;;;;;5.35;1.83;;;;;;;18.45;55.38;92678.41;5071307;28;20072;-77
2022/08/24 00:03:43;;;;;;;3.47;1.70;;;;;;;18.45;55.32;92689.03;5058216;28;20044;-77
2022/08/24 00:06:12;;;;;;;6.32;2.00;;;;;;;18.43;55.85;92685.94;5075151;28;20236;-77
2022/08/24 00:08:39;;;;;;;4.72;2.00;;;;;;;18.40;56.51;92683.94;5075096;28;20143;-77
2022/08/24 00:11:06;;;;;;;4.35;2.15;;;;;;;18.36;57.31;92683.06;5056378;28;20100;-77
2022/08/24 00:13:33;;;;;;;7.93;2.30;;;;;;;18.37;57.57;92687.22;5074819;28;20038;-77
2022/08/24 00:15:59;;;;;;;7.07;2.28;;;;;;;18.35;58.06;92686.81;5076262;28;20048;-77
2022/08/24 00:18:25;;;;;;;7.35;2.03;;;;;;;18.30;58.94;92687.78;5076445;28;20119;-77
2022/08/24 00:20:50;;;;;;;5.35;2.33;;;;;;;18.27;58.81;92685.78;5073515;28;20086;-77
2022/08/24 00:23:16;;;;;;;5.18;1.95;;;;;;;18.27;59.07;92696.38;5055372;28;20029;-77
2022/08/24 00:25:42;;;;;;;7.28;2.20;;;;;;;18.23;59.38;92687.53;5054904;28;20047;-77
2022/08/24 00:28:08;;;;;;;5.43;2.15;;;;;;;18.19;59.44;92688.53;5055966;28;20181;-77
2022/08/24 00:30:34;;;;;;;6.50;2.10;;;;;;;18.18;59.24;92685.13;5064210;28;20062;-77
2022/08/24 00:33:00;;;;;;;4.00;2.15;;;;;;;18.16;59.28;92684.66;5061911;28;20123;-77
2022/08/24 00:35:26;;;;;;;4.72;2.22;;;;;;;18.13;59.53;92685.34;5055573;28;20124;-77
2022/08/24 00:37:53;;;;;;;5.43;2.10;;;;;;;18.09;59.21;92679.91;5053985;28;20049;-77
2022/08/24 00:40:29;;;;;;;4.85;2.22;;;;;;;18.06;59.86;92691.16;5055884;28;20045;-77
2022/08/24 00:42:55;;;;;;;3.60;2.05;;;;;;;18.07;59.52;92692.69;5073815;28;20035;-77
2022/08/24 00:45:23;;;;;;;5.32;2.10;;;;;;;18.09;59.43;92685.19;5075668;28;20085;-77
2022/08/24 00:47:58;;;;;;;6.25;2.08;;;;;;;18.10;59.42;92697.38;5073821;28;20039;-77
2022/08/24 00:50:47;;;;;;;6.28;2.00;;;;;;;18.07;59.15;92687.41;5073461;28;20529;-77
2022/08/24 00:53:26;;;;;;;3.65;1.80;;;;;;;18.09;58.72;92695.03;5064811;28;20033;-77
2022/08/24 00:55:57;;;;;;;3.85;1.90;;;;;;;18.07;58.62;92686.63;5053944;28;20041;-78
2022/08/24 00:58:29;;;;;;;4.40;2.10;;;;;;;18.05;58.57;92684.31;5055726;28;20040;-78
2022/08/24 01:01:02;;;;;;;4.13;2.10;;;;;;;18.07;58.69;92691.94;5064654;28;20033;-77
2022/08/24 01:03:31;;;;;;;3.75;1.90;;;;;;;18.03;58.60;92694.44;5073250;28;20434;-77
2022/08/24 01:05:56;;;;;;;6.03;1.98;;;;;;;18.02;58.67;92694.78;5073502;28;20613;-77
2022/08/24 01:08:23;;;;;;;5.22;1.95;;;;;;;17.98;58.51;92689.38;5073641;28;20086;-77
2022/08/24 01:10:53;;;;;;;7.80;2.05;;;;;;;17.97;58.66;92689.69;5072346;28;20394;-77
2022/08/24 01:13:21;;;;;;;3.08;1.80;;;;;;;17.95;58.37;92692.69;5069915;28;20029;-77
2022/08/24 01:15:50;;;;;;;3.80;1.88;;;;;;;17.94;58.49;92693.00;5064857;28;20036;-78
2022/08/24 01:21:15;;;;;;;5.03;2.05;;;;;;;17.87;58.44;92701.47;5071902;28;20033;-77
2022/08/24 01:23:48;;;;;;;4.03;1.90;;;;;;;17.85;58.73;92696.50;5055423;28;20032;-77
2022/08/24 01:26:24;;;;;;;6.68;2.00;;;;;;;17.86;58.43;92697.28;5071841;28;20070;-77
2022/08/24 01:28:56;;;;;;;8.25;2.00;;;;;;;17.83;58.55;92695.28;5071398;28;20056;-77
2022/08/24 01:31:23;;;;;;;5.35;2.10;;;;;;;17.83;58.95;92692.63;5070732;28;20089;-77
2022/08/24 01:33:51;;;;;;;4.90;2.20;;;;;;;17.82;59.22;92696.38;5070647;28;20060;-77
2022/08/24 01:36:35;;;;;;;5.53;2.10;;;;;;;17.82;59.43;92693.72;5054688;28;20082;-77
2022/08/24 01:39:13;;;;;;;7.00;2.13;;;;;;;17.81;59.15;92689.50;5072631;28;20429;-77
2022/08/24 01:41:39;;;;;;;5.30;2.00;;;;;;;17.81;59.68;92694.78;5060271;28;20119;-77
2022/08/24 01:44:05;;;;;;;5.30;2.33;;;;;;;17.83;59.73;92697.91;5069442;28;20089;-77
2022/08/24 01:46:31;;;;;;;4.55;2.00;;;;;;;17.84;60.16;92688.88;5071196;28;20406;-77
2022/08/24 01:48:57;;;;;;;7.22;2.22;;;;;;;17.81;61.05;92692.13;5072472;28;20040;-77
2022/08/24 01:51:24;;;;;;;3.28;1.80;;;;;;;17.77;60.24;92686.75;5070633;28;20352;-77
2022/08/24 01:53:50;;;;;;;5.20;2.10;;;;;;;17.76;61.34;92687.06;5067823;28;20067;-77
2022/08/24 01:56:16;;;;;;;5.40;2.10;;;;;;;17.75;61.23;92682.88;5070658;28;20072;-77
2022/08/24 01:58:46;;;;;;;6.43;2.20;;;;;;;17.72;61.69;92688.81;5054788;28;20036;-77
2022/08/24 02:01:16;;;;;;;4.32;2.00;;;;;;;17.67;62.20;92674.69;5070798;28;20502;-77
2022/08/24 02:03:42;;;;;;;6.78;1.90;;;;;;;17.65;62.39;92687.47;5066066;28;20120;-77
2022/08/24 02:06:09;;;;;;;4.35;2.00;;;;;;;17.62;62.78;92680.16;5050986;28;20025;-77
2022/08/24 02:08:35;;;;;;;4.53;2.03;;;;;;;17.59;62.93;92683.47;5051507;28;20052;-77
2022/08/24 02:11:04;;;;;;;8.23;2.30;;;;;;;17.57;63.09;92690.94;5051351;28;20041;-77
2022/08/24 02:13:31;;;;;;;4.25;2.10;;;;;;;17.54;63.29;92696.09;5051031;28;20021;-77
2022/08/24 02:15:57;;;;;;;4.47;2.08;;;;;;;17.54;63.33;92691.63;5070453;28;20036;-77
2022/08/24 02:18:23;;;;;;;5.10;1.92;;;;;;;17.60;62.66;92690.28;5054301;28;20030;-77
2022/08/24 02:20:49;;;;;;;5.47;2.20;;;;;;;17.64;62.64;92693.84;5070441;28;20051;-77
2022/08/24 02:23:15;;;;;;;3.35;1.92;;;;;;;17.71;63.02;92689.91;5070627;28;20474;-77
2022/08/24 02:25:41;;;;;;;5.50;2.10;;;;;;;17.68;62.92;92692.09;5067250;28;20044;-77
2022/08/24 02:28:07;;;;;;;4.88;2.30;;;;;;;17.71;62.97;92689.91;5070529;28;20040;-77
2022/08/24 02:30:33;;;;;;;5.28;2.08;;;;;;;17.74;63.21;92691.91;5070766;28;20402;-77
2022/08/24 02:32:59;;;;;;;7.00;2.05;;;;;;;17.76;63.62;92695.75;5071807;28;20036;-77
2022/08/24 02:35:27;;;;;;;4.07;2.25;;;;;;;17.77;63.90;92693.91;5068843;28;20105;-77
2022/08/24 02:37:52;;;;;;;4.50;2.10;;;;;;;17.82;63.73;92693.72;5069497;28;20045;-77
2022/08/24 02:40:18;;;;;;;5.65;2.58;;;;;;;17.87;63.74;92694.28;5070521;28;20144;-77
2022/08/24 02:42:44;;;;;;;7.03;2.65;;;;;;;17.87;63.78;92690.88;5070639;28;20036;-77
2022/08/24 02:45:10;;;;;;;4.18;1.98;;;;;;;17.83;63.73;92677.53;5068626;28;20037;-77
2022/08/24 02:47:37;;;;;;;3.75;1.90;;;;;;;17.89;63.33;92693.97;5050343;28;20402;-77
2022/08/24 02:50:06;;;;;;;7.35;2.10;;;;;;;17.89;63.43;92688.69;5064340;28;20452;-77
2022/08/24 02:52:32;;;;;;;4.28;2.00;;;;;;;17.88;64.43;92684.50;5070250;28;20047;-77
2022/08/24 02:54:57;;;;;;;8.25;2.08;;;;;;;17.85;63.66;92688.53;5053665;28;20490;-77
2022/08/24 02:57:27;;;;;;;5.70;2.25;;;;;;;17.79;63.70;92681.13;5054199;28;20088;-78
2022/08/24 02:59:53;;;;;;;3.83;1.92;;;;;;;17.74;64.98;92679.44;5066416;28;20064;-78
2022/08/24 03:02:22;;;;;;;4.97;1.90;;;;;;;17.65;64.68;92676.88;5075975;28;20078;-78
2022/08/24 03:04:47;;;;;;;4.30;1.80;;;;;;;17.65;65.18;92681.38;5051043;28;20048;-78
2022/08/24 03:07:16;;;;;;;4.50;1.75;;;;;;;17.59;66.06;92680.06;5060564;28;20025;-78
2022/08/24 03:09:51;;;;;;;3.95;1.90;;;;;;;17.52;66.11;92680.56;5071347;28;20039;-78
2022/08/24 03:12:20;;;;;;;4.03;1.90;;;;;;;17.46;66.65;92681.84;5071520;28;20041;-78
2022/08/24 03:14:45;;;;;;;5.60;2.20;;;;;;;17.40;66.63;92675.97;5054872;28;20028;-77
2022/08/24 03:17:22;;;;;;;11.00;2.08;;;;;;;17.38;66.17;92677.41;5062271;28;20025;-77
2022/08/24 03:19:49;;;;;;;4.38;2.00;;;;;;;17.28;67.14;92668.00;5059066;28;20708;-78
2022/08/24 03:22:15;;;;;;;3.75;2.00;;;;;;;17.27;67.20;92672.50;5071153;28;20042;-77
2022/08/24 03:24:40;;;;;;;5.03;2.20;;;;;;;17.28;67.04;92674.03;5070276;28;20025;-77
2022/08/24 03:27:06;;;;;;;3.63;1.80;;;;;;;17.24;67.25;92677.66;5068157;28;20058;-77
2022/08/24 03:29:33;;;;;;;5.05;1.88;;;;;;;17.18;67.07;92674.44;5070294;28;20421;-77
2022/08/24 03:32:00;;;;;;;6.07;2.00;;;;;;;17.14;67.26;92673.53;5067640;28;20463;-77
2022/08/24 03:34:25;;;;;;;4.90;2.20;;;;;;;17.11;67.40;92678.69;5053232;28;20041;-77
2022/08/24 03:36:51;;;;;;;4.05;2.00;;;;;;;17.07;67.10;92678.56;5070897;28;20055;-77
2022/08/24 03:39:16;;;;;;;4.05;1.88;;;;;;;17.02;67.16;92678.72;5066556;28;20037;-77
2022/08/24 03:41:42;;;;;;;3.70;1.98;;;;;;;16.98;67.00;92670.69;5053557;28;20132;-77
2022/08/24 03:44:08;;;;;;;4.57;1.85;;;;;;;16.95;66.96;92665.25;5053741;28;20136;-77
2022/08/24 03:46:36;;;;;;;3.50;1.90;;;;;;;16.96;67.13;92672.09;5036943;28;20391;-77
2022/08/24 03:49:04;;;;;;;4.40;1.77;;;;;;;16.92;67.73;92677.25;5056638;28;20111;-77
2022/08/24 03:51:30;;;;;;;4.85;1.90;;;;;;;16.87;68.38;92669.50;5072466;28;20486;-77
2022/08/24 03:53:58;;;;;;;4.72;2.03;;;;;;;16.83;68.01;92672.00;5071185;28;20128;-77
2022/08/24 03:56:26;;;;;;;8.57;2.10;;;;;;;16.80;68.39;92663.97;5074418;28;20410;-77
2022/08/24 03:58:53;;;;;;;4.47;1.88;;;;;;;16.78;69.25;92672.16;5069137;28;20024;-77
2022/08/24 04:01:21;;;;;;;4.45;1.90;;;;;;;16.75;68.47;92670.16;5070869;28;20029;-77
2022/08/24 04:03:48;;;;;;;4.05;1.95;;;;;;;16.73;69.15;92674.19;5069643;28;20036;-77
2022/08/24 04:06:16;;;;;;;4.65;1.90;;;;;;;16.68;69.46;92672.53;5073119;28;20115;-77
2022/08/24 04:08:43;;;;;;;3.75;1.88;;;;;;;16.66;69.44;92672.06;5071748;28;20052;-77
2022/08/24 04:11:19;;;;;;;5.57;1.80;;;;;;;16.64;69.49;92676.91;5073493;28;20060;-77
2022/08/24 04:13:45;;;;;;;5.57;2.00;;;;;;;16.66;69.56;92674.69;5073318;28;20502;-77
2022/08/24 04:16:14;;;;;;;7.07;1.92;;;;;;;16.62;69.87;92673.81;5072810;28;20029;-77
2022/08/24 04:18:42;;;;;;;5.60;2.10;;;;;;;16.57;69.21;92676.63;5072307;28;20041;-76
2022/08/24 04:21:30;;;;;;;6.55;2.00;;;;;;;16.55;69.77;92678.78;5053021;28;20518;-77
2022/08/24 04:23:57;;;;;;;3.28;2.00;;;;;;;16.52;70.48;92679.44;5059668;28;20028;-77
2022/08/24 04:26:25;;;;;;;6.25;2.05;;;;;;;16.47;70.63;92677.00;5072670;28;20021;-77
2022/08/24 04:28:51;;;;;;;4.53;2.03;;;;;;;16.45;70.66;92678.06;5074097;28;20040;-77
2022/08/24 04:31:18;;;;;;;3.30;1.90;;;;;;;16.50;71.36;92685.03;5070976;28;20127;-77
2022/08/24 04:33:46;;;;;;;4.80;2.00;;;;;;;16.45;70.97;92685.22;5071906;28;20020;-77
2022/08/24 04:36:11;;;;;;;5.28;2.40;;;;;;;16.38;71.08;92677.78;5071433;28;20037;-77
2022/08/24 04:38:40;;;;;;;5.03;2.13;;;;;;;16.38;72.24;92684.94;5072368;28;20080;-77
2022/08/24 04:41:32;;;;;;;5.15;2.00;;;;;;;16.35;72.29;92691.63;5065150;28;20410;-77
2022/08/24 04:43:59;;;;;;;6.20;2.05;;;;;;;16.35;71.70;92691.63;5067117;28;20055;-77
2022/08/24 04:46:26;;;;;;;3.28;1.98;;;;;;;16.38;71.24;92695.50;5069305;28;20124;-77
2022/08/24 04:48:53;;;;;;;5.88;1.92;;;;;;;16.38;71.51;92696.28;5074761;28;20036;-77
2022/08/24 04:51:20;;;;;;;3.50;2.00;;;;;;;16.38;72.05;92696.28;5066929;28;20040;-78
2022/08/24 04:53:46;;;;;;;3.78;2.00;;;;;;;16.45;72.33;92701.06;5057532;28;20039;-77
2022/08/24 04:56:15;;;;;;;4.30;1.92;;;;;;;16.47;71.74;92700.75;5049532;28;20032;-77
2022/08/24 04:58:41;;;;;;;4.68;2.00;;;;;;;16.53;71.72;92702.16;5071033;28;20131;-77
2022/08/24 05:01:08;;;;;;;3.40;1.80;;;;;;;16.64;71.12;92704.13;5063866;28;20104;-78
2022/08/24 05:03:35;;;;;;;5.22;2.10;;;;;;;16.62;70.57;92694.97;5072844;28;20047;-76
2022/08/24 05:06:00;;;;;;;5.35;1.98;;;;;;;16.64;70.23;92703.34;5068993;28;20040;-76
2022/08/24 05:08:26;;;;;;;3.65;2.10;;;;;;;16.67;70.25;92713.28;5059432;28;20040;-76
2022/08/24 05:10:53;;;;;;;9.80;2.47;;;;;;;16.69;69.82;92708.44;5086180;28;20029;-76
2022/08/24 05:13:19;;;;;;;5.50;2.00;;;;;;;16.73;70.25;92709.38;5054204;28;20094;-76
2022/08/24 05:15:47;;;;;;;5.90;2.10;;;;;;;16.79;70.04;92715.22;5071593;28;20544;-76
2022/08/24 05:18:15;;;;;;;6.68;2.15;;;;;;;16.81;69.20;92711.19;5071491;28;20119;-76
2022/08/24 05:20:44;;;;;;;4.25;2.15;;;;;;;16.87;68.73;92721.63;5071635;28;20087;-76
2022/08/24 05:23:10;;;;;;;5.82;2.05;;;;;;;16.90;68.79;92713.03;5061148;28;20410;-77
2022/08/24 05:25:37;;;;;;;3.70;2.22;;;;;;;16.97;67.92;92719.34;5051462;28;20029;-76
2022/08/24 05:28:03;;;;;;;4.00;1.98;;;;;;;17.07;67.66;92715.59;5052710;28;20029;-76
2022/08/24 05:30:28;;;;;;;5.05;2.10;;;;;;;17.14;67.16;92710.56;5051400;28;20498;-76
2022/08/24 05:32:54;;;;;;;6.57;2.33;;;;;;;17.28;66.63;92716.38;5056960;28;20040;-76
2022/08/24 05:35:20;;;;;;;6.63;2.15;;;;;;;17.39;66.38;92716.00;5069671;28;20083;-76
2022/08/24 05:37:46;;;;;;;4.85;2.20;;;;;;;17.50;66.89;92713.75;5070799;28;20460;-77
2022/08/24 05:40:16;;;;;;;6.80;2.10;;;;;;;17.56;66.71;92710.59;5071162;28;20454;-76
2022/08/24 05:42:45;;;;;;;5.18;2.10;;;;;;;17.67;66.29;92711.75;5071272;28;20398;-77
2022/08/24 05:45:11;;;;;;;3.97;2.28;;;;;;;17.77;65.99;92709.78;5063943;28;20041;-76
2022/08/24 05:47:37;;;;;;;5.88;2.17;;;;;;;17.87;65.36;92714.72;5051040;28;20064;-76
2022/08/24 05:50:13;;;;;;;3.90;2.15;;;;;;;17.91;64.56;92705.00;5051216;28;20033;-77
2022/08/24 05:52:39;;;;;;;4.10;2.05;;;;;;;18.08;64.89;92719.97;5050938;28;20124;-76
2022/08/24 05:55:05;;;;;;;4.60;2.13;;;;;;;18.19;64.50;92717.69;5052238;28;20124;-76
2022/08/24 05:57:34;;;;;;;5.15;1.92;;;;;;;18.30;64.13;92711.63;5052163;28;20040;-76
2022/08/24 06:00:14;;;;;;;4.07;2.20;;;;;;;18.46;63.48;92708.34;5065040;28;20044;-76
2022/08/24 06:02:46;;;;;;;4.47;2.00;;;;;;;18.60;63.14;92715.97;5070707;28;20036;-76
2022/08/24 06:05:13;;;;;;;5.20;2.00;;;;;;;18.71;63.35;92709.13;5069553;28;20406;-76
2022/08/24 06:07:39;;;;;;;5.30;2.20;;;;;;;18.93;62.97;92713.25;5069110;28;20410;-76
2022/08/24 06:10:05;;;;;;;4.10;2.08;;;;;;;19.07;63.39;92705.75;5054058;28;20041;-76
2022/08/24 06:12:32;;;;;;;5.53;2.00;;;;;;;19.31;62.92;92715.56;5070688;28;20036;-76
2022/08/24 06:14:58;;;;;;;3.65;2.10;;;;;;;19.48;62.28;92711.13;5053948;28;20482;-76
2022/08/24 06:17:23;;;;;;;5.57;2.08;;;;;;;19.64;61.69;92709.28;5065942;28;20041;-76
2022/08/24 06:19:49;;;;;;;4.63;2.35;;;;;;;19.83;61.45;92707.94;5063282;28;20515;-76
2022/08/24 06:22:15;;;;;;;5.22;2.03;;;;;;;20.38;60.08;92711.66;5053309;28;20058;-77
2022/08/24 06:27:26;;;;;;;4.18;2.10;;;;;;;22.86;53.02;92697.00;5051369;28;20037;-77
2022/08/24 06:29:54;;;;;;;4.22;2.05;;;;;;;23.60;51.62;92703.81;5058436;28;20187;-77
2022/08/24 06:32:43;;;;;;;5.78;2.00;;;;;;;24.18;49.79;92707.94;5052061;28;20037;-77
2022/08/24 06:35:13;;;;;;;4.65;2.20;;;;;;;24.75;48.40;92707.03;5050788;28;20490;-77
2022/08/24 06:37:39;;;;;;;3.83;2.22;;;;;;;25.16;46.70;92698.91;5050444;28;20048;-78
2022/08/24 06:40:06;;;;;;;6.28;2.35;;;;;;;25.54;46.54;92700.34;5059285;28;20449;-77
2022/08/24 06:42:33;;;;;;;5.47;2.08;;;;;;;26.03;45.27;92706.31;5070699;28;20040;-77
2022/08/24 06:44:59;;;;;;;5.10;2.22;;;;;;;26.27;43.59;92711.00;5072408;28;20036;-77
2022/08/24 06:47:24;;;;;;;4.45;2.30;;;;;;;26.68;42.33;92705.38;5071810;28;20394;-77
2022/08/24 06:49:58;;;;;;;6.57;2.40;;;;;;;26.18;43.73;92710.59;5070341;28;20079;-77
2022/08/24 06:52:26;;;;;;;7.85;2.20;;;;;;;26.33;42.54;92708.72;5036073;28;20045;-77
2022/08/24 06:54:52;;;;;;;6.97;2.40;;;;;;;26.60;40.10;92711.88;5036224;28;20072;-78
2022/08/24 06:57:18;;;;;;;5.47;2.33;;;;;;;26.42;40.73;92711.03;5051424;28;20061;-77
2022/08/24 06:59:43;;;;;;;7.45;2.92;;;;;;;25.74;42.13;92708.88;5051534;28;20033;-77
2022/08/24 07:02:11;;;;;;;5.93;2.22;;;;;;;25.63;43.68;92716.84;5066233;28;20101;-78
2022/08/24 07:04:37;;;;;;;7.00;2.50;;;;;;;24.96;44.70;92722.47;5070106;28;20041;-77
2022/08/24 07:07:05;;;;;;;5.05;2.40;;;;;;;24.26;45.81;92720.28;5071643;28;20131;-77
2022/08/24 07:09:32;;;;;;;10.30;2.70;;;;;;;24.01;48.46;92722.66;5070103;28;20074;-77
2022/08/24 07:11:58;;;;;;;5.07;2.58;;;;;;;23.85;49.81;92717.53;5068917;28;20502;-77
2022/08/24 07:14:24;;;;;;;6.38;2.30;;;;;;;23.36;50.04;92723.72;5070106;28;20064;-77
2022/08/24 07:16:49;;;;;;;6.97;2.70;;;;;;;23.13;50.58;92725.66;5070732;28;20029;-77
2022/08/24 07:19:15;;;;;;;9.25;2.63;;;;;;;22.81;51.70;92721.34;5054432;28;20055;-78
2022/08/24 07:21:41;;;;;;;8.32;2.70;;;;;;;22.86;51.45;92733.59;5070289;28;20482;-78
2022/08/24 07:24:07;;;;;;;7.43;2.80;;;;;;;22.94;51.12;92723.81;5076702;28;20030;-79
2022/08/24 07:26:37;;;;;;;6.28;2.30;;;;;;;23.03;50.01;92719.81;5079638;28;20024;-80
2022/08/24 07:29:08;;;;;;;6.13;2.30;;;;;;;23.20;49.70;92723.09;5070568;28;20056;-80
2022/08/24 07:31:41;;;;;;;12.45;2.75;;;;;;;23.07;50.69;92723.28;5072390;28;20036;-78
2022/08/24 07:34:21;;;;;;;8.88;2.70;;;;;;;22.99;48.25;92727.00;5047915;28;20044;-78
2022/08/24 07:36:49;;;;;;;5.47;2.22;;;;;;;23.37;47.67;92724.47;5050816;28;20573;-78
2022/08/24 07:39:15;;;;;;;4.28;2.20;;;;;;;23.51;47.75;92730.03;5077203;28;20078;-78
2022/08/24 07:41:43;;;;;;;4.20;2.20;;;;;;;23.46;46.94;92733.00;5059976;28;20028;-77
2022/08/24 07:44:11;;;;;;;5.88;2.45;;;;;;;23.25;46.49;92730.81;5069965;28;20013;-78
2022/08/24 07:46:39;;;;;;;5.93;2.35;;;;;;;23.30;49.18;92722.47;5078671;28;20040;-77
2022/08/24 07:49:06;;;;;;;6.72;2.65;;;;;;;23.39;50.10;92738.25;5072967;28;20024;-77
2022/08/24 07:51:33;;;;;;;5.78;2.30;;;;;;;23.33;48.27;92729.78;5058915;28;20120;-77
2022/08/24 07:54:00;;;;;;;7.53;2.47;;;;;;;23.48;49.12;92726.19;5060138;28;20059;-77
2022/08/24 07:56:30;;;;;;;6.00;2.30;;;;;;;23.62;47.84;92724.81;5062974;28;20047;-77
2022/08/24 07:58:59;;;;;;;4.57;2.20;;;;;;;23.40;47.81;92732.56;5072513;28;20036;-77
2022/08/24 08:01:26;;;;;;;9.82;2.30;;;;;;;23.13;51.31;92726.44;5070744;28;20028;-79
2022/08/24 08:03:52;;;;;;;6.15;2.60;;;;;;;22.98;50.49;92728.06;5069017;28;20048;-80
2022/08/24 08:06:18;;;;;;;6.63;2.83;;;;;;;23.21;51.05;92732.63;5066063;28;20042;-79
2022/08/24 08:08:45;;;;;;;10.40;2.85;;;;;;;23.15;49.91;92728.75;5070426;28;20090;-79
2022/08/24 08:11:12;;;;;;;4.18;2.20;;;;;;;23.17;48.03;92731.81;5065852;28;20033;-79
2022/08/24 08:13:39;;;;;;;8.18;2.78;;;;;;;23.03;50.47;92727.03;5069212;28;20493;-78
2022/08/24 08:16:06;;;;;;;4.90;2.30;;;;;;;22.88;50.43;92731.34;5056229;28;20076;-78
2022/08/24 08:18:32;;;;;;;7.43;2.78;;;;;;;22.91;50.75;92738.63;5056967;28;20136;-78
2022/08/24 08:21:03;;;;;;;11.43;2.88;;;;;;;23.14;51.13;92733.31;5057852;28;20041;-78
2022/08/24 08:26:19;;;;;;;6.82;2.10;;;;;;;22.71;48.18;92729.16;5068563;28;20072;-78
2022/08/24 08:29:20;;;;;;;4.57;2.15;;;;;;;23.04;48.56;92740.03;5000622;28;20046;-78
2022/08/24 08:31:46;;;;;;;6.50;2.03;;;;;;;23.14;47.28;92733.31;5050745;28;20048;-78
2022/08/24 08:34:12;;;;;;;5.72;1.95;;;;;;;23.33;47.14;92739.66;5081881;28;20110;-78
2022/08/24 08:36:39;;;;;;;8.30;2.20;;;;;;;23.46;47.53;92739.13;5079216;28;20036;-78
2022/08/24 08:39:12;;;;;;;5.20;1.75;;;;;;;23.55;47.40;92740.75;5064796;28;20051;-78
2022/08/24 08:42:13;;;;;;;5.80;2.42;;;;;;;23.41;46.82;92739.41;5065446;28;20028;-78
2022/08/24 08:44:54;;;;;;;4.50;2.00;;;;;;;23.73;46.61;92741.75;5063358;28;20044;-78
2022/08/24 08:47:50;;;;;;;3.88;1.83;;;;;;;23.93;45.27;92747.00;5061210;28;20572;-78
2022/08/24 08:50:47;;;;;;;5.38;2.20;;;;;;;23.63;45.52;92745.06;5058524;28;20032;-78
2022/08/24 08:53:16;;;;;;;3.72;1.80;;;;;;;23.83;45.48;92756.44;5059988;28;20033;-78
2022/08/24 08:55:49;;;;;;;9.93;2.20;;;;;;;23.67;46.24;92749.34;5059282;28;20048;-78
2022/08/24 08:58:52;;;;;;;6.20;2.13;;;;;;;23.86;46.33;92745.78;5043073;28;20037;-80
2022/08/24 09:01:21;;;;;;;3.70;2.10;;;;;;;23.93;45.99;92750.44;5061709;28;20044;-78
2022/08/24 09:04:01;;;;;;;3.92;2.10;;;;;;;24.17;45.56;92746.53;5061148;28;20033;-79
2022/08/24 09:07:21;;;;;;;8.02;2.10;;;;;;;24.16;44.83;92738.88;5063259;28;20489;-79
2022/08/24 09:10:24;;;;;;;3.42;1.80;;;;;;;24.18;45.68;92739.28;4966357;28;20468;-78
2022/08/24 09:12:56;;;;;;;3.80;1.70;;;;;;;24.14;44.66;92749.94;4979805;28;20116;-78
2022/08/24 09:15:35;;;;;;;3.22;1.77;;;;;;;24.41;45.47;92745.28;5059522;28;20553;-78
2022/08/24 09:18:30;;;;;;;3.60;1.50;;;;;;;24.64;44.19;92747.81;5073353;28;20044;-78
2022/08/24 09:21:21;;;;;;;7.65;1.70;;;;;;;25.08;43.58;92747.06;5063272;28;20047;-78
2022/08/24 09:24:49;;;;;;;3.30;1.77;;;;;;;25.31;42.91;92733.50;5064513;28;20029;-78
2022/08/24 09:27:41;;;;;;;3.45;1.70;;;;;;;25.01;42.75;92736.28;4977864;28;20042;-78
2022/08/24 09:30:22;;;;;;;4.80;2.15;;;;;;;25.05;44.15;92721.03;5019630;28;20049;-77
2022/08/24 09:33:17;;;;;;;2.95;1.58;;;;;;;24.95;42.12;92732.44;5059415;28;20045;-78
2022/08/24 09:36:09;;;;;;;4.70;1.83;;;;;;;24.51;44.90;92722.47;5079753;28;20036;-78
2022/08/24 09:39:16;;;;;;;3.05;1.60;;;;;;;24.85;44.23;92717.78;5077463;28;20047;-78
2022/08/24 09:42:15;;;;;;;3.70;1.70;;;;;;;25.01;43.49;92719.47;5074070;28;20033;-78
2022/08/24 09:45:14;;;;;;;6.45;1.83;;;;;;;24.91;44.87;92723.59;5055471;28;20048;-78
2022/08/24 09:47:55;;;;;;;2.63;1.67;;;;;;;24.81;45.73;92721.59;5073860;28;20044;-78
2022/08/24 09:50:45;;;;;;;3.33;1.70;;;;;;;24.96;44.51;92717.91;5068156;28;20071;-79
2022/08/24 09:53:39;;;;;;;2.72;1.60;;;;;;;25.53;45.14;92710.28;5074955;28;20097;-78
2022/08/24 09:56:18;;;;;;;2.75;1.70;;;;;;;25.35;43.85;92712.06;5071227;28;20088;-80
2022/08/24 09:58:57;;;;;;;4.95;1.88;;;;;;;25.08;44.27;92704.22;5065615;28;20040;-79
2022/08/24 10:01:30;;;;;;;3.03;1.73;;;;;;;25.05;44.13;92699.59;5064527;28;20036;-79
2022/08/24 10:04:41;;;;;;;4.43;1.70;;;;;;;25.09;44.51;92702.31;5062865;28;20029;-78
2022/08/24 10:07:40;;;;;;;4.88;1.98;;;;;;;25.06;43.29;92698.47;4996984;28;20037;-77
2022/08/24 10:10:08;;;;;;;5.07;1.77;;;;;;;25.20;44.46;92705.09;5077645;28;20092;-79
2022/08/24 10:12:53;;;;;;;3.25;1.80;;;;;;;25.54;45.09;92708.38;5080846;28;20032;-79
2022/08/24 10:15:36;;;;;;;2.35;1.50;;;;;;;25.31;44.33;92706.72;5067859;28;20045;-79
2022/08/24 10:18:13;;;;;;;3.90;1.70;;;;;;;25.41;45.44;92709.81;5065401;28;20497;-78
2022/08/24 10:21:17;;;;;;;1.95;1.25;;;;;;;25.32;42.96;92705.56;5068923;28;20036;-78
2022/08/24 10:23:54;;;;;;;3.50;1.90;;;;;;;25.40;42.93;92701.03;5070970;28;20395;-77
2022/08/24 10:26:22;;;;;;;5.03;1.70;;;;;;;25.42;43.81;92706.78;5051785;28;20128;-77
2022/08/24 10:29:10;;;;;;;3.63;1.88;;;;;;;25.37;43.54;92704.44;5056657;28;20107;-78
2022/08/24 10:32:10;;;;;;;4.15;1.92;;;;;;;25.37;43.69;92701.75;5066120;28;20039;-77
2022/08/24 10:34:59;;;;;;;6.13;2.10;;;;;;;25.81;44.05;92700.84;5073270;28;20048;-78
2022/08/24 10:39:39;;;;;;;2.75;1.70;;;;;;;25.98;42.62;92688.66;5073306;28;20043;-79
2022/08/24 10:40:59;;;;;;;3.85;1.90;;;;;;;26.04;42.41;92702.50;5059685;28;20036;-78
2022/08/24 10:43:53;;;;;;;4.00;1.67;;;;;;;26.16;42.21;92702.16;5068282;28;20032;-78
2022/08/24 10:46:55;;;;;;;2.72;1.70;;;;;;;26.25;41.94;92689.13;5069371;28;20567;-77
2022/08/24 10:49:24;;;;;;;;;;;;;;;26.14;41.23;92685.66;5069223;28;20144;-79
2022/08/24 10:52:07;;;;;;;2.80;1.70;;;;;;;25.92;42.04;92688.28;5073695;28;19916;-78
2022/08/24 10:54:35;;;;;;;4.32;1.90;;;;;;;25.92;42.13;92684.84;5074288;28;20056;-78
2022/08/24 10:57:19;;;;;;;2.58;1.60;;;;;;;26.05;41.61;92675.31;5072709;28;20037;-78
2022/08/24 11:00:20;;;;;;;2.85;1.80;;;;;;;26.09;42.15;92694.09;5065949;28;20048;-78
2022/08/24 11:02:46;;;;;;;3.42;1.88;;;;;;;26.45;40.82;92683.44;5073687;28;20028;-79
2022/08/24 11:05:27;;;;;;;3.85;1.52;;;;;;;26.52;41.25;92680.75;5074054;28;20636;-78
2022/08/24 11:07:57;;;;;;;2.75;1.60;;;;;;;26.59;42.46;92688.84;5058505;28;20051;-77
2022/08/24 11:10:26;;;;;;;11.43;2.38;;;;;;;26.33;41.32;92688.03;5059345;28;20089;-78
2022/08/24 11:12:52;;;;;;;4.95;1.70;;;;;;;26.17;42.20;92680.31;5071886;28;20029;-78
2022/08/24 11:15:22;;;;;;;3.40;2.00;;;;;;;26.57;40.96;92686.56;5070034;28;20063;-78
2022/08/24 11:18:00;;;;;;;4.60;1.85;;;;;;;26.73;39.40;92685.44;5061643;28;20029;-78
2022/08/24 11:20:39;;;;;;;6.78;1.90;;;;;;;26.78;40.95;92683.13;5071724;28;20111;-79
2022/08/24 11:23:24;;;;;;;4.18;1.60;;;;;;;27.19;40.87;92674.66;5072994;28;20438;-79
2022/08/24 11:26:04;;;;;;;3.28;1.83;;;;;;;27.36;40.47;92677.75;5073104;28;20034;-78
2022/08/24 11:28:49;;;;;;;3.22;1.83;;;;;;;27.11;40.38;92680.41;5073788;28;20037;-78
2022/08/24 11:31:49;;;;;;;2.97;1.73;;;;;;;27.14;40.08;92675.06;5074727;28;20498;-78
2022/08/24 11:34:19;;;;;;;4.40;1.80;;;;;;;27.49;39.51;92678.84;5055517;28;20040;-78
2022/08/24 11:36:45;;;;;;;7.28;1.85;;;;;;;27.65;40.59;92670.38;5067090;28;20036;-80
2022/08/24 11:39:10;;;;;;;4.28;1.80;;;;;;;27.62;40.25;92681.91;5053683;28;20144;-78
2022/08/24 11:41:52;;;;;;;3.33;1.90;;;;;;;27.44;40.59;92671.19;5057660;28;20107;-78
2022/08/24 11:44:38;;;;;;;3.45;1.75;;;;;;;27.50;41.07;92675.03;5073289;28;20543;-81
2022/08/24 11:47:09;;;;;;;3.30;1.77;;;;;;;27.79;39.89;92674.94;5076793;28;20044;-78
2022/08/24 11:49:57;;;;;;;5.00;1.70;;;;;;;27.78;38.19;92670.72;5073587;28;20035;-79
2022/08/24 11:52:32;;;;;;;6.15;1.83;;;;;;;27.56;38.40;92668.09;5058631;28;20063;-78
2022/08/24 11:55:06;;;;;;;5.18;2.33;;;;;;;27.24;40.29;92667.41;5064711;28;20074;-77
2022/08/24 11:57:51;;;;;;;3.45;1.60;;;;;;;27.01;39.80;92673.91;5065822;28;20243;-78
2022/08/24 12:00:21;;;;;;;3.40;1.83;;;;;;;26.42;40.56;92674.25;5048838;28;20033;-78
2022/08/24 12:03:05;;;;;;;6.60;1.88;;;;;;;26.42;42.06;92668.09;5074816;28;20032;-77
2022/08/24 12:05:56;;;;;;;4.22;2.10;;;;;;;26.47;42.23;92665.81;5071899;28;20082;-78
2022/08/24 12:08:22;;;;;;;3.90;1.67;;;;;;;26.54;43.00;92671.19;5061225;28;20116;-76